Decoded Metar for LFBG (COGNAC in FRANCE) (IATA:CNG) | Meteo·Mobile Aviation Weather
aviador You're here:

LFBG Decoded Metar

COGNAC in FRANCE
Report Time2019-06-26 22:30:00
UTC Time2019-06-26 22:53:12
Flight Rules vfr VFR
Wind070° at 06 kt
W.Decomp.*RWY 08: 5.9 kt HW 0.9 kt LCW
RWY 05: 5.6 kt HW 2.2 kt RCW
Visibility9999 m
Phenomena:N/A
Clouds:N/A
Expected CloudBase > 2,800 ft AGL from Temp-Dew spread
CeilingNone
Temp28°C (ISA +13)
Dew Point21°C (66% RH)
Heat Index30.2°C
QNH1016 hPa
Density Alt1,847 ft
Elevation102 ft
Report Wrong Elevation
Raw Report
LFBG 262230Z AUTO 07006KT CAVOK 28/21 Q1016=

Extra information for LFBG:More info

Metar Taf Metar & Taf Last 4 Metars F.Rules Stats Wind Profile Meteogram Temp Stats Airport Information Weather charts Add Link Nearby VenuesMetar ALERT Operation Metar Decoded Social comments